Terminal Aerodrome Forecast
Issued by NWS

Home | Current Version | Previous Version | Text Only | Print | Product List | Glossary On
Versions: 1 2 3 4 5 6 7 8 9 10 11 12 13 14 15 16
745
FTUS43 KSGF 142025 AAA
TAFBBG
TAF AMD
KBBG 142025Z 1420/1518 14006KT 5SM BR OVC007
     FM142300 13004KT P6SM OVC010
     FM150000 VRB03KT P6SM SCT035
     FM150800 00000KT 3SM BR SCT080
     FM151000 00000KT 3SM BR SCT020 BKN090
     FM151600 29010KT P6SM BKN080=

USA.gov is the U.S. government's official web portal to all federal, state and local government web resources and services.